sensor_id;sensor_type;location;lat;lon;timestamp;P1;durP1;ratioP1;P2;durP2;ratioP2
28910;SDS011;16028;42.642;23.310;2023-05-07T00:02:05;11.95;;;8.95;;
28910;SDS011;16028;42.642;23.310;2023-05-07T00:04:32;12.38;;;8.55;;
28910;SDS011;16028;42.642;23.310;2023-05-07T00:07:05;14.95;;;8.10;;
28910;SDS011;16028;42.642;23.310;2023-05-07T00:09:32;16.25;;;8.52;;
28910;SDS011;16028;42.642;23.310;2023-05-07T00:11:59;12.63;;;8.27;;
28910;SDS011;16028;42.642;23.310;2023-05-07T00:14:26;11.98;;;8.18;;
28910;SDS011;16028;42.642;23.310;2023-05-07T00:16:52;13.18;;;7.60;;
28910;SDS011;16028;42.642;23.310;2023-05-07T00:19:20;13.82;;;7.70;;
28910;SDS011;16028;42.642;23.310;2023-05-07T00:21:47;12.40;;;7.85;;
28910;SDS011;16028;42.642;23.310;2023-05-07T00:24:14;10.55;;;7.70;;
28910;SDS011;16028;42.642;23.310;2023-05-07T00:26:40;11.60;;;8.20;;
28910;SDS011;16028;42.642;23.310;2023-05-07T00:29:07;11.60;;;8.38;;
28910;SDS011;16028;42.642;23.310;2023-05-07T00:31:34;10.90;;;7.50;;
28910;SDS011;16028;42.642;23.310;2023-05-07T00:34:01;12.93;;;8.38;;
28910;SDS011;16028;42.642;23.310;2023-05-07T00:36:29;10.23;;;6.90;;
28910;SDS011;16028;42.642;23.310;2023-05-07T00:38:56;8.95;;;6.38;;
28910;SDS011;16028;42.642;23.310;2023-05-07T00:41:25;11.65;;;6.20;;
28910;SDS011;16028;42.642;23.310;2023-05-07T00:43:51;9.15;;;5.43;;
28910;SDS011;16028;42.642;23.310;2023-05-07T00:46:18;13.63;;;6.15;;
28910;SDS011;16028;42.642;23.310;2023-05-07T00:48:46;12.25;;;8.20;;
28910;SDS011;16028;42.642;23.310;2023-05-07T00:51:14;33.10;;;20.38;;
28910;SDS011;16028;42.642;23.310;2023-05-07T00:53:42;20.48;;;11.38;;
28910;SDS011;16028;42.642;23.310;2023-05-07T00:56:09;9.35;;;6.72;;
28910;SDS011;16028;42.642;23.310;2023-05-07T00:58:36;9.70;;;6.82;;
28910;SDS011;16028;42.642;23.310;2023-05-07T01:01:03;17.00;;;6.47;;
28910;SDS011;16028;42.642;23.310;2023-05-07T01:03:30;9.15;;;5.30;;
28910;SDS011;16028;42.642;23.310;2023-05-07T01:05:56;12.07;;;5.60;;
28910;SDS011;16028;42.642;23.310;2023-05-07T01:08:24;9.90;;;6.53;;
28910;SDS011;16028;42.642;23.310;2023-05-07T01:10:54;11.10;;;5.88;;
28910;SDS011;16028;42.642;23.310;2023-05-07T01:13:22;13.40;;;6.00;;
28910;SDS011;16028;42.642;23.310;2023-05-07T01:15:50;8.73;;;5.55;;
28910;SDS011;16028;42.642;23.310;2023-05-07T01:18:17;10.10;;;6.03;;
28910;SDS011;16028;42.642;23.310;2023-05-07T01:20:44;10.90;;;6.72;;
28910;SDS011;16028;42.642;23.310;2023-05-07T01:23:12;9.63;;;5.90;;
28910;SDS011;16028;42.642;23.310;2023-05-07T01:25:39;8.77;;;5.80;;
28910;SDS011;16028;42.642;23.310;2023-05-07T01:28:06;9.43;;;6.68;;
28910;SDS011;16028;42.642;23.310;2023-05-07T01:30:33;10.63;;;6.72;;
28910;SDS011;16028;42.642;23.310;2023-05-07T01:33:02;8.93;;;6.60;;
28910;SDS011;16028;42.642;23.310;2023-05-07T01:35:34;15.02;;;7.15;;
28910;SDS011;16028;42.642;23.310;2023-05-07T01:38:03;11.63;;;7.00;;
28910;SDS011;16028;42.642;23.310;2023-05-07T01:40:32;10.38;;;7.50;;
28910;SDS011;16028;42.642;23.310;2023-05-07T01:43:00;14.68;;;7.10;;
28910;SDS011;16028;42.642;23.310;2023-05-07T01:45:28;10.32;;;7.45;;
28910;SDS011;16028;42.642;23.310;2023-05-07T01:47:56;9.85;;;7.30;;
28910;SDS011;16028;42.642;23.310;2023-05-07T01:50:24;9.80;;;7.47;;
28910;SDS011;16028;42.642;23.310;2023-05-07T01:52:51;9.80;;;7.30;;
28910;SDS011;16028;42.642;23.310;2023-05-07T01:55:18;13.57;;;7.93;;
28910;SDS011;16028;42.642;23.310;2023-05-07T01:57:46;11.40;;;7.88;;
28910;SDS011;16028;42.642;23.310;2023-05-07T02:00:13;10.55;;;7.20;;
28910;SDS011;16028;42.642;23.310;2023-05-07T02:02:40;11.20;;;7.38;;
28910;SDS011;16028;42.642;23.310;2023-05-07T02:05:07;16.90;;;8.35;;
28910;SDS011;16028;42.642;23.310;2023-05-07T02:07:34;10.82;;;7.80;;
28910;SDS011;16028;42.642;23.310;2023-05-07T02:10:01;16.70;;;8.60;;
28910;SDS011;16028;42.642;23.310;2023-05-07T02:12:28;12.63;;;7.72;;
28910;SDS011;16028;42.642;23.310;2023-05-07T02:14:56;14.68;;;7.15;;
28910;SDS011;16028;42.642;23.310;2023-05-07T02:17:23;10.23;;;6.57;;
28910;SDS011;16028;42.642;23.310;2023-05-07T02:19:50;8.32;;;6.78;;
28910;SDS011;16028;42.642;23.310;2023-05-07T02:22:17;11.00;;;6.60;;
28910;SDS011;16028;42.642;23.310;2023-05-07T02:24:44;10.93;;;6.78;;
28910;SDS011;16028;42.642;23.310;2023-05-07T02:27:10;9.25;;;7.18;;
28910;SDS011;16028;42.642;23.310;2023-05-07T02:29:37;14.25;;;7.68;;
28910;SDS011;16028;42.642;23.310;2023-05-07T02:32:05;11.75;;;7.82;;
28910;SDS011;16028;42.642;23.310;2023-05-07T02:34:32;9.00;;;7.15;;
28910;SDS011;16028;42.642;23.310;2023-05-07T02:36:59;10.90;;;7.25;;
28910;SDS011;16028;42.642;23.310;2023-05-07T02:39:26;10.30;;;6.95;;
28910;SDS011;16028;42.642;23.310;2023-05-07T02:41:52;11.55;;;7.30;;
28910;SDS011;16028;42.642;23.310;2023-05-07T02:44:19;7.90;;;6.65;;
28910;SDS011;16028;42.642;23.310;2023-05-07T02:46:46;11.63;;;7.05;;
28910;SDS011;16028;42.642;23.310;2023-05-07T02:49:14;11.70;;;7.68;;
28910;SDS011;16028;42.642;23.310;2023-05-07T02:51:40;12.18;;;8.05;;
28910;SDS011;16028;42.642;23.310;2023-05-07T02:54:07;14.23;;;8.18;;
28910;SDS011;16028;42.642;23.310;2023-05-07T02:56:34;11.07;;;7.82;;
28910;SDS011;16028;42.642;23.310;2023-05-07T02:59:00;13.00;;;8.25;;
28910;SDS011;16028;42.642;23.310;2023-05-07T03:01:27;12.65;;;8.57;;
28910;SDS011;16028;42.642;23.310;2023-05-07T03:03:54;12.50;;;8.25;;
28910;SDS011;16028;42.642;23.310;2023-05-07T03:06:22;12.75;;;8.55;;
28910;SDS011;16028;42.642;23.310;2023-05-07T03:08:49;14.07;;;8.80;;
28910;SDS011;16028;42.642;23.310;2023-05-07T03:11:16;11.00;;;8.43;;
28910;SDS011;16028;42.642;23.310;2023-05-07T03:13:43;14.05;;;8.15;;
28910;SDS011;16028;42.642;23.310;2023-05-07T03:16:10;10.02;;;8.35;;
28910;SDS011;16028;42.642;23.310;2023-05-07T03:18:37;14.07;;;8.48;;
28910;SDS011;16028;42.642;23.310;2023-05-07T03:21:03;14.50;;;8.73;;
28910;SDS011;16028;42.642;23.310;2023-05-07T03:23:32;11.60;;;8.15;;
28910;SDS011;16028;42.642;23.310;2023-05-07T03:25:58;12.30;;;8.63;;
28910;SDS011;16028;42.642;23.310;2023-05-07T03:28:25;12.82;;;7.65;;
28910;SDS011;16028;42.642;23.310;2023-05-07T03:30:52;16.98;;;8.50;;
28910;SDS011;16028;42.642;23.310;2023-05-07T03:33:18;12.40;;;8.98;;
28910;SDS011;16028;42.642;23.310;2023-05-07T03:35:45;11.68;;;7.82;;
28910;SDS011;16028;42.642;23.310;2023-05-07T03:38:12;11.55;;;9.13;;
28910;SDS011;16028;42.642;23.310;2023-05-07T03:40:40;14.13;;;9.35;;
28910;SDS011;16028;42.642;23.310;2023-05-07T03:43:07;13.50;;;9.73;;
28910;SDS011;16028;42.642;23.310;2023-05-07T03:45:34;15.70;;;9.40;;
28910;SDS011;16028;42.642;23.310;2023-05-07T03:48:00;14.80;;;9.23;;
28910;SDS011;16028;42.642;23.310;2023-05-07T03:50:27;12.20;;;9.45;;
28910;SDS011;16028;42.642;23.310;2023-05-07T03:52:54;14.90;;;9.70;;
28910;SDS011;16028;42.642;23.310;2023-05-07T03:55:20;11.07;;;9.07;;
28910;SDS011;16028;42.642;23.310;2023-05-07T03:57:48;21.25;;;10.10;;
28910;SDS011;16028;42.642;23.310;2023-05-07T04:00:16;11.82;;;8.20;;
28910;SDS011;16028;42.642;23.310;2023-05-07T04:02:42;13.02;;;8.68;;
28910;SDS011;16028;42.642;23.310;2023-05-07T04:05:09;11.60;;;8.38;;
28910;SDS011;16028;42.642;23.310;2023-05-07T04:07:36;11.50;;;8.10;;
28910;SDS011;16028;42.642;23.310;2023-05-07T04:10:03;12.32;;;8.98;;
28910;SDS011;16028;42.642;23.310;2023-05-07T04:12:30;14.35;;;9.20;;
28910;SDS011;16028;42.642;23.310;2023-05-07T04:14:58;12.88;;;8.77;;
28910;SDS011;16028;42.642;23.310;2023-05-07T04:17:25;12.60;;;9.27;;
28910;SDS011;16028;42.642;23.310;2023-05-07T04:19:51;14.70;;;9.63;;
28910;SDS011;16028;42.642;23.310;2023-05-07T04:22:18;12.75;;;9.73;;
28910;SDS011;16028;42.642;23.310;2023-05-07T04:24:44;11.23;;;9.25;;
28910;SDS011;16028;42.642;23.310;2023-05-07T04:27:11;13.43;;;9.35;;
28910;SDS011;16028;42.642;23.310;2023-05-07T04:29:38;14.18;;;9.13;;
28910;SDS011;16028;42.642;23.310;2023-05-07T04:32:09;16.52;;;10.00;;
28910;SDS011;16028;42.642;23.310;2023-05-07T04:34:35;14.88;;;9.52;;
28910;SDS011;16028;42.642;23.310;2023-05-07T04:37:02;16.92;;;10.50;;
28910;SDS011;16028;42.642;23.310;2023-05-07T04:39:29;17.15;;;11.18;;
28910;SDS011;16028;42.642;23.310;2023-05-07T04:41:55;14.05;;;10.00;;
28910;SDS011;16028;42.642;23.310;2023-05-07T04:44:22;13.63;;;9.77;;
28910;SDS011;16028;42.642;23.310;2023-05-07T04:46:49;12.27;;;8.65;;
28910;SDS011;16028;42.642;23.310;2023-05-07T04:49:18;15.68;;;9.25;;
28910;SDS011;16028;42.642;23.310;2023-05-07T04:51:44;15.00;;;10.40;;
28910;SDS011;16028;42.642;23.310;2023-05-07T04:54:11;20.35;;;14.10;;
28910;SDS011;16028;42.642;23.310;2023-05-07T04:56:38;14.75;;;10.52;;
28910;SDS011;16028;42.642;23.310;2023-05-07T04:59:04;15.40;;;10.23;;
28910;SDS011;16028;42.642;23.310;2023-05-07T05:01:31;13.32;;;9.73;;
28910;SDS011;16028;42.642;23.310;2023-05-07T05:03:58;13.25;;;9.20;;
28910;SDS011;16028;42.642;23.310;2023-05-07T05:06:27;12.80;;;8.95;;
28910;SDS011;16028;42.642;23.310;2023-05-07T05:08:54;13.77;;;9.75;;
28910;SDS011;16028;42.642;23.310;2023-05-07T05:11:21;14.00;;;9.30;;
28910;SDS011;16028;42.642;23.310;2023-05-07T05:13:48;13.13;;;9.27;;
28910;SDS011;16028;42.642;23.310;2023-05-07T05:16:15;13.10;;;9.15;;
28910;SDS011;16028;42.642;23.310;2023-05-07T05:18:42;19.27;;;12.30;;
28910;SDS011;16028;42.642;23.310;2023-05-07T05:21:08;17.30;;;11.23;;
28910;SDS011;16028;42.642;23.310;2023-05-07T05:23:36;12.98;;;9.00;;
28910;SDS011;16028;42.642;23.310;2023-05-07T05:26:04;11.48;;;8.82;;
28910;SDS011;16028;42.642;23.310;2023-05-07T05:28:30;12.73;;;9.10;;
28910;SDS011;16028;42.642;23.310;2023-05-07T05:30:57;13.65;;;9.60;;
28910;SDS011;16028;42.642;23.310;2023-05-07T05:33:24;16.67;;;10.00;;
28910;SDS011;16028;42.642;23.310;2023-05-07T05:35:50;12.65;;;9.02;;
28910;SDS011;16028;42.642;23.310;2023-05-07T05:38:17;13.98;;;8.23;;
28910;SDS011;16028;42.642;23.310;2023-05-07T05:40:47;15.95;;;9.00;;
28910;SDS011;16028;42.642;23.310;2023-05-07T05:43:14;13.30;;;9.00;;
28910;SDS011;16028;42.642;23.310;2023-05-07T05:45:40;15.90;;;9.45;;
28910;SDS011;16028;42.642;23.310;2023-05-07T05:48:07;13.50;;;8.55;;
28910;SDS011;16028;42.642;23.310;2023-05-07T05:50:34;10.70;;;8.48;;
28910;SDS011;16028;42.642;23.310;2023-05-07T05:53:03;10.60;;;8.77;;
28910;SDS011;16028;42.642;23.310;2023-05-07T05:55:30;12.15;;;8.73;;
28910;SDS011;16028;42.642;23.310;2023-05-07T05:57:58;12.25;;;8.90;;
28910;SDS011;16028;42.642;23.310;2023-05-07T06:00:25;11.88;;;8.88;;
28910;SDS011;16028;42.642;23.310;2023-05-07T06:02:53;12.10;;;8.75;;
28910;SDS011;16028;42.642;23.310;2023-05-07T06:05:19;13.38;;;9.45;;
28910;SDS011;16028;42.642;23.310;2023-05-07T06:07:46;12.18;;;8.98;;
28910;SDS011;16028;42.642;23.310;2023-05-07T06:10:13;14.13;;;8.27;;
28910;SDS011;16028;42.642;23.310;2023-05-07T06:12:40;14.90;;;8.05;;
28910;SDS011;16028;42.642;23.310;2023-05-07T06:15:09;13.15;;;9.18;;
28910;SDS011;16028;42.642;23.310;2023-05-07T06:17:36;11.48;;;8.70;;
28910;SDS011;16028;42.642;23.310;2023-05-07T06:20:03;16.20;;;8.27;;
28910;SDS011;16028;42.642;23.310;2023-05-07T06:22:30;8.90;;;7.97;;
28910;SDS011;16028;42.642;23.310;2023-05-07T06:24:57;11.70;;;8.05;;
28910;SDS011;16028;42.642;23.310;2023-05-07T06:27:24;13.77;;;7.45;;
28910;SDS011;16028;42.642;23.310;2023-05-07T06:29:50;9.20;;;7.50;;
28910;SDS011;16028;42.642;23.310;2023-05-07T06:32:19;17.00;;;13.35;;
28910;SDS011;16028;42.642;23.310;2023-05-07T06:34:45;15.07;;;8.70;;
28910;SDS011;16028;42.642;23.310;2023-05-07T06:37:12;16.33;;;8.20;;
28910;SDS011;16028;42.642;23.310;2023-05-07T06:39:39;12.07;;;7.70;;
28910;SDS011;16028;42.642;23.310;2023-05-07T06:42:05;11.63;;;8.05;;
28910;SDS011;16028;42.642;23.310;2023-05-07T06:44:32;8.38;;;7.07;;
28910;SDS011;16028;42.642;23.310;2023-05-07T06:46:58;10.73;;;7.25;;
28910;SDS011;16028;42.642;23.310;2023-05-07T06:49:27;10.77;;;6.93;;
28910;SDS011;16028;42.642;23.310;2023-05-07T06:51:53;12.93;;;7.63;;
28910;SDS011;16028;42.642;23.310;2023-05-07T06:54:20;8.10;;;6.43;;
28910;SDS011;16028;42.642;23.310;2023-05-07T06:56:47;7.75;;;6.38;;
28910;SDS011;16028;42.642;23.310;2023-05-07T06:59:14;11.90;;;6.72;;
28910;SDS011;16028;42.642;23.310;2023-05-07T07:01:40;9.77;;;6.65;;
28910;SDS011;16028;42.642;23.310;2023-05-07T07:04:07;9.30;;;6.60;;
28910;SDS011;16028;42.642;23.310;2023-05-07T07:06:35;9.32;;;5.93;;
28910;SDS011;16028;42.642;23.310;2023-05-07T07:09:02;10.80;;;5.82;;
28910;SDS011;16028;42.642;23.310;2023-05-07T07:11:29;9.70;;;5.68;;
28910;SDS011;16028;42.642;23.310;2023-05-07T07:13:55;8.07;;;6.50;;
28910;SDS011;16028;42.642;23.310;2023-05-07T07:16:23;7.70;;;6.15;;
28910;SDS011;16028;42.642;23.310;2023-05-07T07:18:50;9.18;;;6.15;;
28910;SDS011;16028;42.642;23.310;2023-05-07T07:21:17;8.27;;;6.22;;
28910;SDS011;16028;42.642;23.310;2023-05-07T07:23:45;10.93;;;6.18;;
28910;SDS011;16028;42.642;23.310;2023-05-07T07:26:12;11.65;;;6.25;;
28910;SDS011;16028;42.642;23.310;2023-05-07T07:28:42;8.13;;;6.22;;
28910;SDS011;16028;42.642;23.310;2023-05-07T07:31:09;10.93;;;5.95;;
28910;SDS011;16028;42.642;23.310;2023-05-07T07:33:36;11.63;;;6.25;;
28910;SDS011;16028;42.642;23.310;2023-05-07T07:36:04;6.28;;;5.68;;
28910;SDS011;16028;42.642;23.310;2023-05-07T07:38:32;9.68;;;6.22;;
28910;SDS011;16028;42.642;23.310;2023-05-07T07:41:00;8.52;;;6.35;;
28910;SDS011;16028;42.642;23.310;2023-05-07T07:43:27;7.63;;;5.90;;
28910;SDS011;16028;42.642;23.310;2023-05-07T07:45:54;10.73;;;6.05;;
28910;SDS011;16028;42.642;23.310;2023-05-07T07:48:21;8.40;;;5.32;;
28910;SDS011;16028;42.642;23.310;2023-05-07T07:50:48;8.73;;;5.80;;
28910;SDS011;16028;42.642;23.310;2023-05-07T07:53:15;12.10;;;5.95;;
28910;SDS011;16028;42.642;23.310;2023-05-07T07:55:42;7.55;;;5.78;;
28910;SDS011;16028;42.642;23.310;2023-05-07T07:58:10;6.45;;;5.20;;
28910;SDS011;16028;42.642;23.310;2023-05-07T08:00:36;8.13;;;5.03;;
28910;SDS011;16028;42.642;23.310;2023-05-07T08:03:03;10.32;;;6.80;;
28910;SDS011;16028;42.642;23.310;2023-05-07T08:05:31;14.60;;;5.90;;
28910;SDS011;16028;42.642;23.310;2023-05-07T08:07:58;9.25;;;6.10;;
28910;SDS011;16028;42.642;23.310;2023-05-07T08:10:25;11.20;;;6.78;;
28910;SDS011;16028;42.642;23.310;2023-05-07T08:12:51;9.77;;;6.57;;
28910;SDS011;16028;42.642;23.310;2023-05-07T08:15:20;9.95;;;7.15;;
28910;SDS011;16028;42.642;23.310;2023-05-07T08:17:46;10.90;;;7.30;;
28910;SDS011;16028;42.642;23.310;2023-05-07T08:20:13;8.38;;;6.57;;
28910;SDS011;16028;42.642;23.310;2023-05-07T08:22:40;7.68;;;6.30;;
28910;SDS011;16028;42.642;23.310;2023-05-07T08:25:07;12.10;;;6.70;;
28910;SDS011;16028;42.642;23.310;2023-05-07T08:27:34;9.70;;;6.60;;
28910;SDS011;16028;42.642;23.310;2023-05-07T08:30:01;8.00;;;5.70;;
28910;SDS011;16028;42.642;23.310;2023-05-07T08:32:30;8.73;;;6.28;;
28910;SDS011;16028;42.642;23.310;2023-05-07T08:34:56;6.35;;;5.22;;
28910;SDS011;16028;42.642;23.310;2023-05-07T08:37:23;15.93;;;6.63;;
28910;SDS011;16028;42.642;23.310;2023-05-07T08:39:50;8.30;;;6.50;;
28910;SDS011;16028;42.642;23.310;2023-05-07T08:42:17;7.53;;;6.07;;
28910;SDS011;16028;42.642;23.310;2023-05-07T08:44:44;11.57;;;7.13;;
28910;SDS011;16028;42.642;23.310;2023-05-07T08:47:12;8.80;;;6.75;;
28910;SDS011;16028;42.642;23.310;2023-05-07T08:49:41;10.65;;;6.95;;
28910;SDS011;16028;42.642;23.310;2023-05-07T08:52:08;11.90;;;6.55;;
28910;SDS011;16028;42.642;23.310;2023-05-07T08:54:35;11.40;;;7.72;;
28910;SDS011;16028;42.642;23.310;2023-05-07T08:57:03;9.40;;;7.38;;
28910;SDS011;16028;42.642;23.310;2023-05-07T08:59:30;10.05;;;7.13;;
28910;SDS011;16028;42.642;23.310;2023-05-07T09:01:57;9.93;;;7.43;;
28910;SDS011;16028;42.642;23.310;2023-05-07T09:04:23;11.57;;;7.22;;
28910;SDS011;16028;42.642;23.310;2023-05-07T09:06:51;12.68;;;7.95;;
28910;SDS011;16028;42.642;23.310;2023-05-07T09:09:18;10.13;;;7.60;;
28910;SDS011;16028;42.642;23.310;2023-05-07T09:11:45;12.23;;;7.50;;
28910;SDS011;16028;42.642;23.310;2023-05-07T09:14:11;10.23;;;7.25;;
28910;SDS011;16028;42.642;23.310;2023-05-07T09:16:39;11.95;;;7.03;;
28910;SDS011;16028;42.642;23.310;2023-05-07T09:19:05;13.40;;;7.43;;
28910;SDS011;16028;42.642;23.310;2023-05-07T09:21:32;8.32;;;6.28;;
28910;SDS011;16028;42.642;23.310;2023-05-07T09:24:00;7.68;;;6.30;;
28910;SDS011;16028;42.642;23.310;2023-05-07T09:26:27;8.82;;;6.22;;
28910;SDS011;16028;42.642;23.310;2023-05-07T09:28:53;7.53;;;6.72;;
28910;SDS011;16028;42.642;23.310;2023-05-07T09:31:20;8.75;;;6.50;;
28910;SDS011;16028;42.642;23.310;2023-05-07T09:33:48;8.75;;;6.60;;
28910;SDS011;16028;42.642;23.310;2023-05-07T09:36:15;9.73;;;6.10;;
28910;SDS011;16028;42.642;23.310;2023-05-07T09:38:42;8.18;;;6.07;;
28910;SDS011;16028;42.642;23.310;2023-05-07T09:41:10;8.00;;;6.35;;
28910;SDS011;16028;42.642;23.310;2023-05-07T09:43:39;8.13;;;5.80;;
28910;SDS011;16028;42.642;23.310;2023-05-07T09:46:06;10.07;;;6.28;;
28910;SDS011;16028;42.642;23.310;2023-05-07T09:48:38;8.40;;;5.75;;
28910;SDS011;16028;42.642;23.310;2023-05-07T09:51:06;7.57;;;6.05;;
28910;SDS011;16028;42.642;23.310;2023-05-07T09:53:40;7.55;;;4.93;;
28910;SDS011;16028;42.642;23.310;2023-05-07T09:56:12;8.23;;;5.18;;
28910;SDS011;16028;42.642;23.310;2023-05-07T09:58:41;7.10;;;5.45;;
28910;SDS011;16028;42.642;23.310;2023-05-07T10:01:10;8.98;;;5.78;;
28910;SDS011;16028;42.642;23.310;2023-05-07T10:03:38;6.65;;;5.68;;
28910;SDS011;16028;42.642;23.310;2023-05-07T10:06:07;8.88;;;6.40;;
28910;SDS011;16028;42.642;23.310;2023-05-07T10:08:35;12.30;;;6.78;;
28910;SDS011;16028;42.642;23.310;2023-05-07T10:11:02;8.77;;;6.82;;
28910;SDS011;16028;42.642;23.310;2023-05-07T10:13:31;11.25;;;6.60;;
28910;SDS011;16028;42.642;23.310;2023-05-07T10:16:01;10.02;;;6.50;;
28910;SDS011;16028;42.642;23.310;2023-05-07T10:18:30;8.07;;;6.57;;
28910;SDS011;16028;42.642;23.310;2023-05-07T10:21:00;10.25;;;6.10;;
28910;SDS011;16028;42.642;23.310;2023-05-07T10:23:30;7.30;;;5.50;;
28910;SDS011;16028;42.642;23.310;2023-05-07T10:25:58;9.13;;;5.32;;
28910;SDS011;16028;42.642;23.310;2023-05-07T10:28:28;11.30;;;5.07;;
28910;SDS011;16028;42.642;23.310;2023-05-07T10:31:15;4.95;;;4.35;;
28910;SDS011;16028;42.642;23.310;2023-05-07T10:33:53;6.07;;;4.63;;
28910;SDS011;16028;42.642;23.310;2023-05-07T10:36:22;8.60;;;5.03;;
28910;SDS011;16028;42.642;23.310;2023-05-07T10:38:51;7.28;;;5.68;;
28910;SDS011;16028;42.642;23.310;2023-05-07T10:41:18;11.27;;;5.60;;
28910;SDS011;16028;42.642;23.310;2023-05-07T10:43:46;8.52;;;5.28;;
28910;SDS011;16028;42.642;23.310;2023-05-07T10:46:15;9.88;;;5.53;;
28910;SDS011;16028;42.642;23.310;2023-05-07T10:51:38;6.60;;;5.90;;
28910;SDS011;16028;42.642;23.310;2023-05-07T10:54:21;7.47;;;5.20;;
28910;SDS011;16028;42.642;23.310;2023-05-07T10:56:48;9.48;;;5.18;;
28910;SDS011;16028;42.642;23.310;2023-05-07T10:59:35;5.57;;;5.00;;
28910;SDS011;16028;42.642;23.310;2023-05-07T11:02:08;7.30;;;5.57;;
28910;SDS011;16028;42.642;23.310;2023-05-07T11:04:36;8.77;;;6.43;;
28910;SDS011;16028;42.642;23.310;2023-05-07T11:10:02;10.90;;;6.80;;
28910;SDS011;16028;42.642;23.310;2023-05-07T11:18:16;5.65;;;5.15;;
28910;SDS011;16028;42.642;23.310;2023-05-07T11:20:47;6.43;;;4.88;;
28910;SDS011;16028;42.642;23.310;2023-05-07T11:26:41;8.35;;;5.32;;
28910;SDS011;16028;42.642;23.310;2023-05-07T11:29:13;7.07;;;5.20;;
28910;SDS011;16028;42.642;23.310;2023-05-07T11:31:41;8.30;;;5.00;;
28910;SDS011;16028;42.642;23.310;2023-05-07T11:34:09;7.00;;;5.07;;
28910;SDS011;16028;42.642;23.310;2023-05-07T11:36:41;5.97;;;5.38;;
28910;SDS011;16028;42.642;23.310;2023-05-07T11:39:25;6.18;;;5.32;;
28910;SDS011;16028;42.642;23.310;2023-05-07T11:41:55;8.07;;;4.97;;
28910;SDS011;16028;42.642;23.310;2023-05-07T11:44:22;5.72;;;4.90;;
28910;SDS011;16028;42.642;23.310;2023-05-07T11:46:48;5.90;;;4.53;;
28910;SDS011;16028;42.642;23.310;2023-05-07T11:49:17;5.30;;;4.70;;
28910;SDS011;16028;42.642;23.310;2023-05-07T11:51:45;6.43;;;5.32;;
28910;SDS011;16028;42.642;23.310;2023-05-07T11:54:11;6.32;;;4.75;;
28910;SDS011;16028;42.642;23.310;2023-05-07T11:56:41;5.38;;;4.85;;
28910;SDS011;16028;42.642;23.310;2023-05-07T11:59:08;6.40;;;4.88;;
28910;SDS011;16028;42.642;23.310;2023-05-07T12:01:35;9.73;;;4.38;;
28910;SDS011;16028;42.642;23.310;2023-05-07T12:04:02;6.68;;;5.50;;
28910;SDS011;16028;42.642;23.310;2023-05-07T12:06:35;9.63;;;5.35;;
28910;SDS011;16028;42.642;23.310;2023-05-07T12:09:02;5.75;;;4.78;;
28910;SDS011;16028;42.642;23.310;2023-05-07T12:11:32;6.13;;;4.82;;
28910;SDS011;16028;42.642;23.310;2023-05-07T12:13:58;5.57;;;4.78;;
28910;SDS011;16028;42.642;23.310;2023-05-07T12:16:25;6.13;;;4.65;;
28910;SDS011;16028;42.642;23.310;2023-05-07T12:18:53;8.10;;;5.38;;
28910;SDS011;16028;42.642;23.310;2023-05-07T12:21:20;6.50;;;4.53;;
28910;SDS011;16028;42.642;23.310;2023-05-07T12:23:49;8.15;;;5.15;;
28910;SDS011;16028;42.642;23.310;2023-05-07T12:26:15;8.23;;;4.97;;
28910;SDS011;16028;42.642;23.310;2023-05-07T12:28:42;5.03;;;4.53;;
28910;SDS011;16028;42.642;23.310;2023-05-07T12:31:09;6.90;;;4.60;;
28910;SDS011;16028;42.642;23.310;2023-05-07T12:33:36;6.72;;;4.15;;
28910;SDS011;16028;42.642;23.310;2023-05-07T12:36:03;5.07;;;4.45;;
28910;SDS011;16028;42.642;23.310;2023-05-07T12:38:34;5.03;;;4.35;;
28910;SDS011;16028;42.642;23.310;2023-05-07T12:41:04;5.22;;;4.72;;
28910;SDS011;16028;42.642;23.310;2023-05-07T12:43:32;6.03;;;4.50;;
28910;SDS011;16028;42.642;23.310;2023-05-07T12:46:00;7.82;;;4.60;;
28910;SDS011;16028;42.642;23.310;2023-05-07T12:48:28;5.70;;;4.38;;
28910;SDS011;16028;42.642;23.310;2023-05-07T12:50:55;6.25;;;4.40;;
28910;SDS011;16028;42.642;23.310;2023-05-07T12:53:23;9.75;;;3.80;;
28910;SDS011;16028;42.642;23.310;2023-05-07T12:55:51;4.68;;;3.80;;
28910;SDS011;16028;42.642;23.310;2023-05-07T12:58:22;7.70;;;4.43;;
28910;SDS011;16028;42.642;23.310;2023-05-07T13:00:51;3.83;;;3.45;;
28910;SDS011;16028;42.642;23.310;2023-05-07T13:03:22;8.32;;;3.70;;
28910;SDS011;16028;42.642;23.310;2023-05-07T13:05:50;5.05;;;4.00;;
28910;SDS011;16028;42.642;23.310;2023-05-07T13:08:23;4.28;;;3.88;;
28910;SDS011;16028;42.642;23.310;2023-05-07T13:10:54;7.38;;;4.00;;
28910;SDS011;16028;42.642;23.310;2023-05-07T13:13:22;4.35;;;3.85;;
28910;SDS011;16028;42.642;23.310;2023-05-07T13:15:49;6.38;;;4.13;;
28910;SDS011;16028;42.642;23.310;2023-05-07T13:18:15;5.40;;;3.80;;
28910;SDS011;16028;42.642;23.310;2023-05-07T13:20:42;4.68;;;3.70;;
28910;SDS011;16028;42.642;23.310;2023-05-07T13:23:09;5.38;;;4.10;;
28910;SDS011;16028;42.642;23.310;2023-05-07T13:25:36;5.03;;;4.53;;
28910;SDS011;16028;42.642;23.310;2023-05-07T13:28:02;4.70;;;3.88;;
28910;SDS011;16028;42.642;23.310;2023-05-07T13:30:31;5.57;;;3.90;;
28910;SDS011;16028;42.642;23.310;2023-05-07T13:32:57;4.82;;;3.90;;
28910;SDS011;16028;42.642;23.310;2023-05-07T13:35:26;4.13;;;3.63;;
28910;SDS011;16028;42.642;23.310;2023-05-07T13:37:53;7.40;;;4.30;;
28910;SDS011;16028;42.642;23.310;2023-05-07T13:40:20;5.90;;;4.57;;
28910;SDS011;16028;42.642;23.310;2023-05-07T13:42:47;5.85;;;4.13;;
28910;SDS011;16028;42.642;23.310;2023-05-07T13:45:15;5.50;;;3.50;;
28910;SDS011;16028;42.642;23.310;2023-05-07T13:47:43;5.55;;;3.63;;
28910;SDS011;16028;42.642;23.310;2023-05-07T13:50:10;8.25;;;3.80;;
28910;SDS011;16028;42.642;23.310;2023-05-07T13:52:38;4.35;;;3.95;;
28910;SDS011;16028;42.642;23.310;2023-05-07T13:55:08;4.15;;;3.72;;
28910;SDS011;16028;42.642;23.310;2023-05-07T13:57:35;5.40;;;3.97;;
28910;SDS011;16028;42.642;23.310;2023-05-07T14:00:02;4.65;;;3.92;;
28910;SDS011;16028;42.642;23.310;2023-05-07T14:02:30;5.57;;;3.90;;
28910;SDS011;16028;42.642;23.310;2023-05-07T14:04:58;8.30;;;6.70;;
28910;SDS011;16028;42.642;23.310;2023-05-07T14:07:24;5.53;;;3.67;;
28910;SDS011;16028;42.642;23.310;2023-05-07T14:09:51;6.90;;;3.58;;
28910;SDS011;16028;42.642;23.310;2023-05-07T14:12:18;6.10;;;3.80;;
28910;SDS011;16028;42.642;23.310;2023-05-07T14:14:44;4.05;;;3.65;;
28910;SDS011;16028;42.642;23.310;2023-05-07T14:17:12;4.25;;;3.85;;
28910;SDS011;16028;42.642;23.310;2023-05-07T14:19:38;5.00;;;3.22;;
28910;SDS011;16028;42.642;23.310;2023-05-07T14:22:06;4.43;;;3.40;;
28910;SDS011;16028;42.642;23.310;2023-05-07T14:24:33;6.80;;;3.60;;
28910;SDS011;16028;42.642;23.310;2023-05-07T14:27:00;4.38;;;3.72;;
28910;SDS011;16028;42.642;23.310;2023-05-07T14:29:27;6.40;;;4.20;;
28910;SDS011;16028;42.642;23.310;2023-05-07T14:31:54;7.72;;;3.17;;
28910;SDS011;16028;42.642;23.310;2023-05-07T14:34:21;3.85;;;3.45;;
28910;SDS011;16028;42.642;23.310;2023-05-07T14:36:47;4.88;;;3.33;;
28910;SDS011;16028;42.642;23.310;2023-05-07T14:39:15;3.72;;;3.33;;
28910;SDS011;16028;42.642;23.310;2023-05-07T14:41:42;6.60;;;3.70;;
28910;SDS011;16028;42.642;23.310;2023-05-07T14:44:09;4.97;;;3.90;;
28910;SDS011;16028;42.642;23.310;2023-05-07T14:46:35;3.83;;;3.47;;